Time;durP1;ratioP1;P1;durP2;ratioP2;P2;SDS_P1;SDS_P2;PMS_P1;PMS_P2;Temp;Humidity;BMP_temperature;BMP_pressure;BME280_temperature;BME280_humidity;BME280_pressure;Samples;Min_cycle;Max_cycle;Signal;HPM_P1;HPM_P2
2022/01/04 00:00:14;;;;;;;3.95;2.40;;;;;;;13.09;59.20;100160.06;4947013;28;123819;-72
2022/01/04 00:02:41;;;;;;;4.15;2.20;;;;;;;13.10;59.64;100159.13;4948156;28;124888;-73
2022/01/04 00:05:10;;;;;;;4.63;2.10;;;;;;;13.10;59.32;100156.47;4945371;28;119254;-73
2022/01/04 00:07:37;;;;;;;6.13;2.67;;;;;;;13.09;59.40;100152.97;4945379;28;117876;-73
2022/01/04 00:10:08;;;;;;;4.38;2.38;;;;;;;13.09;59.40;100146.78;4946017;28;123426;-73
2022/01/04 00:15:22;;;;;;;4.43;2.00;;;;;;;13.09;59.39;100128.16;4945637;28;119375;-73
2022/01/04 00:17:49;;;;;;;3.83;2.10;;;;;;;13.07;59.34;100130.09;4943570;28;118689;-73
2022/01/04 00:20:16;;;;;;;3.97;2.00;;;;;;;13.05;59.44;100123.06;4946141;28;124496;-73
2022/01/04 00:22:44;;;;;;;3.75;1.85;;;;;;;13.05;59.10;100116.88;4944537;28;124004;-73
2022/01/04 00:25:11;;;;;;;4.93;1.65;;;;;;;13.03;59.34;100114.34;4928872;28;119070;-73
2022/01/04 00:27:38;;;;;;;5.20;1.90;;;;;;;13.03;59.39;100114.34;4944897;28;118031;-73
2022/01/04 00:30:06;;;;;;;3.80;1.90;;;;;;;13.04;59.37;100121.34;4944438;28;124351;-73
2022/01/04 00:32:33;;;;;;;4.07;2.10;;;;;;;13.02;59.42;100112.63;4945662;28;123670;-72
2022/01/04 00:35:00;;;;;;;3.72;1.65;;;;;;;13.02;59.34;100107.31;4927111;28;119615;-73
2022/01/04 00:37:27;;;;;;;4.88;1.83;;;;;;;13.02;59.40;100091.38;4946108;28;119850;-73
2022/01/04 00:39:54;;;;;;;4.38;2.08;;;;;;;13.01;59.38;100089.66;4928446;28;123011;-73
2022/01/04 00:42:21;;;;;;;4.07;1.95;;;;;;;13.01;59.27;100079.03;4946275;28;124682;-73
2022/01/04 00:44:49;;;;;;;5.47;1.70;;;;;;;12.99;59.27;100064.97;4941313;28;118720;-73
2022/01/04 00:47:16;;;;;;;4.10;1.95;;;;;;;12.98;59.45;100063.31;4946353;28;120182;-73
2022/01/04 00:49:43;;;;;;;5.22;1.88;;;;;;;12.98;59.50;100055.31;4942635;28;123813;-73
2022/01/04 00:52:16;;;;;;;5.50;1.83;;;;;;;12.96;59.37;100049.25;4944532;28;123204;-74
2022/01/04 00:54:45;;;;;;;3.92;1.90;;;;;;;12.94;59.40;100051.19;4945094;28;119461;-73
2022/01/04 00:57:12;;;;;;;3.80;1.90;;;;;;;12.94;59.45;100051.19;4927577;28;117995;-73
2022/01/04 00:59:39;;;;;;;3.72;1.92;;;;;;;12.94;59.42;100045.88;4945061;28;123684;-73
2022/01/04 01:02:06;;;;;;;4.35;1.90;;;;;;;12.95;59.53;100047.53;4943719;28;123311;-73
2022/01/04 01:04:34;;;;;;;5.00;2.30;;;;;;;12.93;59.41;100049.47;4944393;28;118526;-73
2022/01/04 01:07:01;;;;;;;6.10;1.92;;;;;;;12.92;59.39;100037.16;4945783;28;118755;-73
2022/01/04 01:09:33;;;;;;;7.60;2.42;;;;;;;12.90;59.50;100028.41;4945422;28;125217;-73
2022/01/04 01:12:00;;;;;;;4.90;1.90;;;;;;;12.91;59.29;100029.28;4942042;28;124400;-73
2022/01/04 01:14:28;;;;;;;5.55;2.00;;;;;;;12.91;59.40;100026.63;4945226;28;119856;-73
2022/01/04 01:16:55;;;;;;;5.30;2.05;;;;;;;12.90;59.49;100023.09;4946089;28;118606;-73
2022/01/04 01:19:22;;;;;;;5.95;2.00;;;;;;;12.90;59.36;100017.75;4911612;28;123702;-73
2022/01/04 01:21:49;;;;;;;3.70;2.10;;;;;;;12.89;59.39;100026.72;4945286;28;123432;-73
2022/01/04 01:24:18;;;;;;;4.63;2.08;;;;;;;12.89;59.35;100026.72;4942950;28;119918;-73
2022/01/04 01:26:45;;;;;;;5.95;2.30;;;;;;;12.87;59.37;100027.78;4925378;28;119778;-73
2022/01/04 01:29:12;;;;;;;4.32;2.10;;;;;;;12.86;59.60;100018.94;4943949;28;123804;-73
2022/01/04 01:31:39;;;;;;;6.22;2.17;;;;;;;12.85;59.48;100009.28;4942656;28;124383;-73
2022/01/04 01:34:07;;;;;;;3.75;1.98;;;;;;;12.83;59.44;100011.19;4945110;28;119605;-73
2022/01/04 01:36:34;;;;;;;5.45;2.55;;;;;;;12.84;59.57;100007.56;4944247;28;118455;-73
2022/01/04 01:39:01;;;;;;;5.93;2.20;;;;;;;12.83;59.54;100011.19;4944998;28;123837;-73
2022/01/04 01:41:29;;;;;;;6.65;2.50;;;;;;;12.83;59.46;100011.19;4928260;28;123120;-73
2022/01/04 01:43:56;;;;;;;3.83;2.35;;;;;;;12.82;59.45;100004.16;4945292;28;119028;-73
2022/01/04 01:46:24;;;;;;;4.13;2.33;;;;;;;12.79;59.60;100004.34;4929320;28;118149;-73
2022/01/04 01:48:51;;;;;;;5.63;2.30;;;;;;;12.76;59.50;99993.97;4944110;28;123628;-73
2022/01/04 01:51:18;;;;;;;4.18;2.40;;;;;;;12.75;59.51;99992.25;4947771;28;124300;-73
2022/01/04 01:53:45;;;;;;;4.38;2.20;;;;;;;12.74;59.42;99985.25;4948353;28;120502;-73
2022/01/04 01:56:12;;;;;;;5.45;2.35;;;;;;;12.72;59.50;99981.84;4948544;28;119036;-72
2022/01/04 01:58:39;;;;;;;5.32;2.55;;;;;;;12.71;59.62;99985.44;4948438;28;124849;-73
2022/01/04 02:01:08;;;;;;;5.68;2.50;;;;;;;12.68;59.48;99988.28;4946069;28;123430;-73
2022/01/04 02:03:36;;;;;;;6.43;2.90;;;;;;;12.65;59.67;99984.88;4948332;28;119562;-73
2022/01/04 02:06:03;;;;;;;5.85;2.60;;;;;;;12.63;59.52;99978.81;4948646;28;118937;-72
2022/01/04 02:08:30;;;;;;;7.15;2.78;;;;;;;12.62;59.73;99982.47;4945663;28;124319;-73
2022/01/04 02:10:58;;;;;;;6.50;2.72;;;;;;;12.62;59.70;99979.81;4946551;28;123613;-73
2022/01/04 02:13:25;;;;;;;5.07;2.72;;;;;;;12.62;59.67;99979.81;4945710;28;119431;-73
2022/01/04 02:15:53;;;;;;;5.55;2.80;;;;;;;12.61;59.90;99975.44;4946651;28;118812;-73
2022/01/04 02:18:20;;;;;;;4.97;2.72;;;;;;;12.61;59.70;99964.81;4948021;28;123887;-73
2022/01/04 02:20:47;;;;;;;5.97;2.80;;;;;;;12.60;59.82;99963.13;4945079;28;123706;-74
2022/01/04 02:23:15;;;;;;;7.78;2.90;;;;;;;12.60;59.78;99957.81;4946595;28;118590;-73
2022/01/04 02:25:42;;;;;;;6.25;2.70;;;;;;;12.60;59.85;99956.94;4930951;28;118913;-73
2022/01/04 02:28:10;;;;;;;6.05;2.70;;;;;;;12.58;59.84;99938.47;4946449;28;125973;-73
2022/01/04 02:30:37;;;;;;;6.78;2.70;;;;;;;12.59;59.87;99942.81;4947618;28;123720;-73
2022/01/04 02:33:05;;;;;;;5.32;2.88;;;;;;;12.57;59.80;99936.75;4945801;28;118605;-72
2022/01/04 02:35:33;;;;;;;6.63;3.05;;;;;;;12.58;59.94;99932.28;4946838;28;119211;-73
2022/01/04 02:38:01;;;;;;;6.75;2.67;;;;;;;12.56;59.80;99923.56;4946082;28;124706;-73
2022/01/04 02:40:28;;;;;;;7.80;2.83;;;;;;;12.53;59.80;99927.28;4929619;28;123268;-73
2022/01/04 02:42:55;;;;;;;5.93;2.80;;;;;;;12.53;60.02;99929.94;4930073;28;119105;-73
2022/01/04 02:45:23;;;;;;;5.97;3.15;;;;;;;12.52;59.83;99933.53;4930035;28;118465;-73
2022/01/04 02:47:51;;;;;;;6.75;2.92;;;;;;;12.51;60.00;99929.22;4946071;28;123698;-73
2022/01/04 02:50:18;;;;;;;6.20;3.05;;;;;;;12.51;59.89;99926.56;4947371;28;123786;-73
2022/01/04 02:52:46;;;;;;;6.28;2.95;;;;;;;12.52;60.05;99932.72;4947261;28;119501;-73
2022/01/04 02:55:15;;;;;;;6.15;3.28;;;;;;;12.52;60.00;99922.94;4948782;28;96848;-73
2022/01/04 02:57:44;;;;;;;6.70;3.22;;;;;;;12.53;60.11;99924.63;4945634;28;123719;-74
2022/01/04 03:00:13;;;;;;;5.35;3.10;;;;;;;12.53;59.90;99919.31;4926588;28;123422;-73
2022/01/04 03:02:42;;;;;;;6.40;2.70;;;;;;;12.52;59.95;99920.25;4947260;28;120872;-73
2022/01/04 03:05:10;;;;;;;5.25;3.17;;;;;;;12.52;60.03;99912.31;4945320;28;119299;-73
2022/01/04 03:07:37;;;;;;;5.65;2.92;;;;;;;12.52;60.06;99909.66;4936506;28;123667;-73
2022/01/04 03:10:06;;;;;;;5.80;2.88;;;;;;;12.52;59.98;99901.69;4945960;28;124725;-73
2022/01/04 03:12:34;;;;;;;8.25;3.28;;;;;;;12.51;59.79;99900.00;4947063;28;119694;-72
2022/01/04 03:15:03;;;;;;;5.57;2.75;;;;;;;12.50;59.76;99895.63;4944952;28;118696;-73
2022/01/04 03:17:30;;;;;;;6.32;3.00;;;;;;;12.49;59.95;99883.31;4944944;28;123605;-73
2022/01/04 03:19:57;;;;;;;4.38;2.83;;;;;;;12.47;59.96;99893.19;4945878;28;123729;-73
2022/01/04 03:22:24;;;;;;;6.22;2.95;;;;;;;12.48;59.83;99894.88;4947143;28;119286;-73
2022/01/04 03:24:51;;;;;;;6.05;3.13;;;;;;;12.48;60.08;99878.94;4944479;28;119268;-73
2022/01/04 03:27:18;;;;;;;5.72;2.80;;;;;;;12.46;59.97;99870.22;4945931;28;123680;-73
2022/01/04 03:29:45;;;;;;;5.28;2.88;;;;;;;12.45;59.95;99857.91;4947846;28;123620;-73
2022/01/04 03:32:13;;;;;;;6.18;2.75;;;;;;;12.44;59.93;99856.22;4927368;28;118921;-73
2022/01/04 03:34:40;;;;;;;4.68;2.65;;;;;;;12.43;60.01;99843.88;4947252;28;118437;-73
2022/01/04 03:37:07;;;;;;;4.57;2.83;;;;;;;12.43;59.98;99843.88;4946576;28;124804;-73
2022/01/04 03:39:34;;;;;;;6.82;2.95;;;;;;;12.43;60.11;99833.25;4944904;28;122798;-73
2022/01/04 03:42:03;;;;;;;6.10;3.17;;;;;;;12.42;59.94;99827.09;4945843;28;120366;-73
2022/01/04 03:44:31;;;;;;;6.75;3.03;;;;;;;12.42;59.94;99826.25;4947143;28;120675;-73
2022/01/04 03:46:58;;;;;;;4.72;2.78;;;;;;;12.42;59.87;99820.94;4946715;28;124034;-73
2022/01/04 03:49:25;;;;;;;5.57;2.88;;;;;;;12.42;60.12;99810.34;4944235;28;123047;-73
2022/01/04 03:51:52;;;;;;;6.97;2.85;;;;;;;12.42;60.15;99805.00;4943289;28;120365;-73
2022/01/04 03:54:19;;;;;;;7.43;3.40;;;;;;;12.43;59.88;99801.38;4944412;28;117967;-73
2022/01/04 03:56:46;;;;;;;6.18;2.60;;;;;;;12.44;59.70;99792.47;4946446;28;123681;-73
2022/01/04 03:59:14;;;;;;;5.63;2.80;;;;;;;12.44;59.91;99787.16;4946680;28;123723;-72
2022/01/04 04:01:41;;;;;;;5.80;2.80;;;;;;;12.44;60.10;99787.16;4946184;28;119063;-73
2022/01/04 04:04:09;;;;;;;5.38;2.70;;;;;;;12.43;59.79;99774.84;4944616;28;117981;-73
2022/01/04 04:06:36;;;;;;;5.53;2.65;;;;;;;12.43;59.90;99769.53;4946540;28;124601;-73
2022/01/04 04:09:03;;;;;;;5.78;2.90;;;;;;;12.41;59.95;99767.00;4946004;28;124592;-73
2022/01/04 04:11:30;;;;;;;5.05;2.83;;;;;;;12.40;59.74;99759.97;4944857;28;119083;-73
2022/01/04 04:13:57;;;;;;;7.22;2.90;;;;;;;12.39;59.72;99758.25;4946029;28;118787;-73
2022/01/04 04:16:24;;;;;;;6.85;2.75;;;;;;;12.38;59.91;99755.75;4946008;28;124286;-73
2022/01/04 04:18:51;;;;;;;6.13;2.60;;;;;;;12.38;59.75;99753.09;4945470;28;123530;-73
2022/01/04 04:21:19;;;;;;;6.10;2.60;;;;;;;12.36;59.81;99752.34;4928763;28;119220;-73
2022/01/04 04:23:46;;;;;;;4.75;2.53;;;;;;;12.35;59.91;99745.31;4945094;28;118832;-73
2022/01/04 04:26:13;;;;;;;3.88;2.63;;;;;;;12.37;59.87;99743.41;4944069;28;123830;-73
2022/01/04 04:28:40;;;;;;;5.35;2.60;;;;;;;12.36;59.97;99731.09;4946026;28;124499;-73
2022/01/04 04:31:07;;;;;;;5.72;2.50;;;;;;;12.36;59.92;99725.78;4945963;28;119230;-73
2022/01/04 04:33:34;;;;;;;4.80;2.25;;;;;;;12.35;59.84;99729.41;4929180;28;118266;-73
2022/01/04 04:36:02;;;;;;;4.35;2.72;;;;;;;12.33;59.79;99736.63;4945562;28;123771;-73
2022/01/04 04:38:29;;;;;;;3.88;2.60;;;;;;;12.32;59.81;99734.91;4928581;28;124267;-73
2022/01/04 04:40:56;;;;;;;5.47;2.90;;;;;;;12.32;59.91;99734.91;4928395;28;120137;-73
2022/01/04 04:43:23;;;;;;;4.40;2.55;;;;;;;12.32;59.87;99725.16;4944988;28;119048;-73
2022/01/04 04:45:50;;;;;;;4.53;2.58;;;;;;;12.30;59.89;99727.06;4945649;28;123718;-73
2022/01/04 04:48:18;;;;;;;7.80;2.85;;;;;;;12.31;59.79;99722.59;4928411;28;122682;-73
2022/01/04 04:50:45;;;;;;;5.35;2.60;;;;;;;12.30;59.87;99728.84;4943204;28;118586;-73
2022/01/04 04:53:12;;;;;;;5.65;2.90;;;;;;;12.31;60.00;99722.59;4945963;28;117912;-73
2022/01/04 04:55:39;;;;;;;3.85;2.33;;;;;;;12.32;59.74;99724.28;4945780;28;123261;-73
2022/01/04 04:58:06;;;;;;;4.35;2.17;;;;;;;12.31;59.99;99733.22;4944386;28;123849;-73
2022/01/04 05:00:33;;;;;;;4.20;2.30;;;;;;;12.29;60.05;99733.31;4926133;28;119424;-73
2022/01/04 05:03:00;;;;;;;4.78;2.72;;;;;;;12.29;59.90;99729.84;4927672;28;118414;-73
2022/01/04 05:05:28;;;;;;;5.35;2.47;;;;;;;12.29;59.79;99732.50;4942579;28;123837;-73
2022/01/04 05:07:55;;;;;;;6.93;2.92;;;;;;;12.27;59.73;99733.44;4945612;28;124472;-73
2022/01/04 05:10:22;;;;;;;4.18;2.40;;;;;;;12.27;60.03;99727.28;4927912;28;119117;-73
2022/01/04 05:12:49;;;;;;;5.35;2.65;;;;;;;12.26;60.01;99726.44;4945258;28;119143;-73
2022/01/04 05:15:16;;;;;;;4.80;2.40;;;;;;;12.23;59.81;99721.34;4945972;28;123775;-73
2022/01/04 05:17:43;;;;;;;6.68;2.65;;;;;;;12.21;60.00;99707.31;4946376;28;123215;-74
2022/01/04 05:20:11;;;;;;;4.88;2.63;;;;;;;12.20;60.08;99716.22;4944791;28;119010;-73
2022/01/04 05:22:38;;;;;;;4.20;2.65;;;;;;;12.21;59.56;99727.72;4949348;28;118876;-73
2022/01/04 05:25:05;;;;;;;7.85;2.67;;;;;;;12.23;60.11;99720.50;4948938;28;124036;-73
2022/01/04 05:27:33;;;;;;;5.93;2.50;;;;;;;12.24;60.10;99709.78;4948508;28;123318;-74
2022/01/04 05:30:00;;;;;;;4.50;2.75;;;;;;;12.25;59.93;99706.16;4949464;28;120269;-73
2022/01/04 05:32:27;;;;;;;5.50;2.58;;;;;;;12.27;60.12;99701.56;4949935;28;120026;-72
2022/01/04 05:34:54;;;;;;;5.53;2.70;;;;;;;12.29;60.03;99692.66;4931645;28;124678;-73
2022/01/04 05:37:21;;;;;;;3.97;2.40;;;;;;;12.27;59.95;99704.22;4931943;28;124355;-73
2022/01/04 05:39:48;;;;;;;4.55;2.60;;;;;;;12.26;60.01;99694.59;4947646;28;119036;-73
2022/01/04 05:42:16;;;;;;;5.45;2.67;;;;;;;12.26;60.08;99689.28;4948772;28;119555;-73
2022/01/04 05:44:43;;;;;;;4.93;2.60;;;;;;;12.25;60.15;99676.94;4948299;28;123839;-72
2022/01/04 05:47:10;;;;;;;5.60;2.47;;;;;;;12.25;60.04;99666.31;4947564;28;124001;-73
2022/01/04 05:49:37;;;;;;;5.35;2.75;;;;;;;12.25;60.15;99654.88;4948522;28;120847;-72
2022/01/04 05:52:05;;;;;;;4.65;3.38;;;;;;;12.24;60.06;99654.03;4931844;28;119020;-73
2022/01/04 05:54:32;;;;;;;5.35;2.97;;;;;;;12.24;60.03;99659.34;4946420;28;124433;-73
2022/01/04 05:56:59;;;;;;;5.35;3.03;;;;;;;12.23;60.31;99662.94;4948172;28;124277;-73
2022/01/04 05:59:27;;;;;;;5.43;3.42;;;;;;;12.22;60.15;99655.94;4931048;28;119009;-73
2022/01/04 06:01:54;;;;;;;7.53;3.28;;;;;;;12.24;60.13;99654.03;4947095;28;119411;-73
2022/01/04 06:04:21;;;;;;;6.45;3.90;;;;;;;12.24;60.13;99654.03;4947432;28;124237;-73
2022/01/04 06:06:49;;;;;;;4.63;2.90;;;;;;;12.25;59.99;99655.69;4930953;28;123768;-73
2022/01/04 06:09:24;;;;;;;6.57;3.95;;;;;;;12.25;60.05;99658.34;4948364;28;119147;-73
2022/01/04 06:17:08;;;;;;;;;;;;;;;12.19;59.99;99655.31;4931089;28;123021;-72
2022/01/04 06:19:42;;;;;;;5.47;3.75;;;;;;;12.21;59.98;99642.78;4948114;28;121785;-72
2022/01/04 06:22:09;;;;;;;6.22;4.20;;;;;;;12.20;60.05;99647.22;4947874;28;119877;-72
2022/01/04 06:24:37;;;;;;;7.22;4.30;;;;;;;12.19;60.15;99648.19;4946062;28;124010;-73
2022/01/04 06:27:06;;;;;;;8.27;4.60;;;;;;;12.19;59.93;99644.69;4947870;28;123832;-73
2022/01/04 06:29:34;;;;;;;6.00;4.03;;;;;;;12.19;60.06;99653.50;4943796;28;118183;-72
2022/01/04 06:32:03;;;;;;;6.60;4.15;;;;;;;12.18;60.14;99643.81;4927637;28;118576;-72
2022/01/04 06:34:30;;;;;;;6.25;4.18;;;;;;;12.17;60.07;99636.84;4945724;28;122564;-72
2022/01/04 06:36:58;;;;;;;8.07;4.22;;;;;;;12.17;60.23;99636.84;4948034;28;124109;-72
2022/01/04 06:39:25;;;;;;;6.32;3.80;;;;;;;12.17;60.09;99641.31;4930516;28;119432;-71
2022/01/04 06:41:53;;;;;;;7.32;4.10;;;;;;;12.17;59.80;99652.75;4948108;28;119813;-72
2022/01/04 06:44:20;;;;;;;7.22;4.25;;;;;;;12.16;60.27;99653.69;4944989;28;123111;-72
2022/01/04 06:46:47;;;;;;;7.78;4.30;;;;;;;12.17;60.17;99652.75;4946326;28;123969;-72
2022/01/04 06:49:16;;;;;;;8.77;4.57;;;;;;;12.17;60.26;99642.13;4945777;28;117147;-73
2022/01/04 06:51:45;;;;;;;6.57;4.65;;;;;;;12.18;60.33;99629.72;4947290;28;118582;-73
2022/01/04 06:54:17;;;;;;;6.90;4.22;;;;;;;12.18;60.27;99627.88;4947238;28;123308;-72
2022/01/04 06:56:45;;;;;;;8.48;5.13;;;;;;;12.18;60.13;99633.19;4945947;28;123854;-73
2022/01/04 06:59:12;;;;;;;8.65;4.97;;;;;;;12.18;60.27;99611.97;4929858;28;119455;-72
2022/01/04 07:01:39;;;;;;;6.88;4.63;;;;;;;12.19;60.32;99616.34;4930397;28;117980;-72
2022/01/04 07:04:07;;;;;;;7.15;4.70;;;;;;;12.19;60.28;99605.72;4947187;28;124181;-73
2022/01/04 07:06:34;;;;;;;6.60;4.60;;;;;;;12.22;60.30;99607.28;4945841;28;122926;-73
2022/01/04 07:09:04;;;;;;;6.95;4.68;;;;;;;12.19;60.28;99608.38;4949379;28;119746;-73
2022/01/04 07:11:32;;;;;;;9.48;5.03;;;;;;;12.18;60.36;99596.03;4947568;28;120329;-73
2022/01/04 07:13:59;;;;;;;8.52;4.88;;;;;;;12.18;60.52;99606.66;4949163;28;123886;-72
2022/01/04 07:16:27;;;;;;;9.40;5.28;;;;;;;12.19;60.48;99612.84;4947059;28;123669;-73
2022/01/04 07:18:55;;;;;;;7.28;5.07;;;;;;;12.18;60.41;99605.81;4947185;28;119177;-72
2022/01/04 07:21:22;;;;;;;9.15;5.05;;;;;;;12.18;60.45;99596.03;4945746;28;118785;-73
2022/01/04 07:23:50;;;;;;;9.93;5.30;;;;;;;12.18;60.51;99598.69;4945465;28;123995;-72
2022/01/04 07:26:17;;;;;;;8.43;5.13;;;;;;;12.18;60.52;99601.34;4946429;28;123633;-73
2022/01/04 07:28:47;;;;;;;8.85;5.50;;;;;;;12.19;60.61;99592.44;4947295;28;119334;-73
2022/01/04 07:31:15;;;;;;;9.90;5.18;;;;;;;12.18;60.29;99589.91;4945307;28;118159;-73
2022/01/04 07:33:45;;;;;;;11.00;5.47;;;;;;;12.18;60.38;99589.91;4945875;28;124210;-73
2022/01/04 07:36:14;;;;;;;8.35;5.25;;;;;;;12.17;60.59;99593.53;4946557;28;124799;-73
2022/01/04 07:38:42;;;;;;;10.00;5.55;;;;;;;12.17;60.75;99578.44;4946426;28;118935;-73
2022/01/04 07:41:09;;;;;;;8.70;5.53;;;;;;;12.16;60.50;99574.06;4946304;28;119157;-73
2022/01/04 07:43:36;;;;;;;8.55;5.28;;;;;;;12.14;60.73;99562.72;4945345;28;124430;-74
2022/01/04 07:46:04;;;;;;;9.73;6.00;;;;;;;12.12;60.67;99564.63;4946885;28;124535;-74
2022/01/04 07:48:31;;;;;;;8.32;5.53;;;;;;;12.11;60.78;99562.97;4946516;28;118498;-73
2022/01/04 07:50:59;;;;;;;8.93;5.68;;;;;;;12.11;60.81;99562.97;4946804;28;119030;-74
2022/01/04 07:53:30;;;;;;;12.43;5.97;;;;;;;12.12;60.63;99559.34;4945274;28;124002;-73
2022/01/04 07:55:58;;;;;;;12.88;6.07;;;;;;;12.13;60.69;99561.03;4943162;28;123630;-73
2022/01/04 07:58:25;;;;;;;10.68;5.90;;;;;;;12.12;60.79;99569.94;4927567;28;120157;-74
2022/01/04 08:00:53;;;;;;;9.77;5.75;;;;;;;12.12;60.76;99569.94;4945940;28;119256;-74
2022/01/04 08:03:20;;;;;;;10.82;6.28;;;;;;;12.14;60.71;99583.94;4943926;28;124230;-74
2022/01/04 08:05:51;;;;;;;11.60;6.20;;;;;;;12.13;60.76;99582.28;4928557;28;122916;-73
2022/01/04 08:08:18;;;;;;;10.70;6.10;;;;;;;12.14;60.77;99591.06;4947150;28;118908;-74
2022/01/04 08:10:47;;;;;;;9.75;5.88;;;;;;;12.12;60.72;99585.88;4945732;28;118385;-74
2022/01/04 08:13:14;;;;;;;11.05;6.45;;;;;;;12.11;60.96;99584.19;4945781;28;122009;-74
2022/01/04 08:15:42;;;;;;;11.05;6.15;;;;;;;12.11;60.86;99573.56;4929800;28;123402;-74
2022/01/04 08:18:09;;;;;;;10.65;6.40;;;;;;;12.10;60.73;99561.25;4947524;28;119484;-74
2022/01/04 08:20:36;;;;;;;10.48;6.00;;;;;;;12.10;61.04;99555.94;4940523;28;117609;-74
2022/01/04 08:23:04;;;;;;;14.00;6.63;;;;;;;12.10;60.86;99558.59;4943541;28;123635;-74
2022/01/04 08:25:31;;;;;;;13.48;7.13;;;;;;;12.12;61.00;99564.63;4946020;28;123025;-74
2022/01/04 08:27:58;;;;;;;14.55;6.95;;;;;;;12.12;60.80;99575.25;4929687;28;118047;-74
2022/01/04 08:30:25;;;;;;;12.50;6.90;;;;;;;12.11;60.99;99568.28;4944673;28;119058;-74
2022/01/04 08:32:53;;;;;;;11.18;6.57;;;;;;;12.13;60.85;99576.97;4929689;28;123726;-74
2022/01/04 08:35:22;;;;;;;12.18;7.05;;;;;;;12.14;61.01;99578.66;4945742;28;124118;-74
2022/01/04 08:37:49;;;;;;;12.45;7.28;;;;;;;12.14;60.97;99576.00;4947165;28;118754;-74
2022/01/04 08:40:17;;;;;;;10.98;6.65;;;;;;;12.15;60.98;99568.88;4940929;28;118263;-73
2022/01/04 08:42:44;;;;;;;13.38;7.43;;;;;;;12.16;60.94;99571.41;4929951;28;123382;-74
2022/01/04 08:45:11;;;;;;;13.25;7.47;;;;;;;12.15;60.87;99585.66;4945720;28;122710;-74
2022/01/04 08:47:39;;;;;;;14.98;7.90;;;;;;;12.14;60.93;99586.59;4946445;28;120293;-74
2022/01/04 08:50:09;;;;;;;14.45;7.40;;;;;;;12.13;60.98;99582.28;4945441;28;119163;-74
2022/01/04 08:52:37;;;;;;;17.13;8.55;;;;;;;12.12;60.90;99599.13;4925772;28;123660;-73
2022/01/04 08:55:05;;;;;;;13.80;7.32;;;;;;;12.12;61.08;99612.41;4945411;28;122812;-73
2022/01/04 08:57:32;;;;;;;12.90;7.57;;;;;;;12.13;61.02;99608.81;4948421;28;119193;-73
2022/01/04 09:00:00;;;;;;;15.00;8.10;;;;;;;12.13;61.02;99606.16;4947448;28;119394;-73
2022/01/04 09:02:27;;;;;;;15.15;7.85;;;;;;;12.14;60.84;99604.34;4948592;28;125346;-73
2022/01/04 09:04:55;;;;;;;14.93;7.93;;;;;;;12.13;61.06;99603.50;4948227;28;124510;-73
2022/01/04 09:07:22;;;;;;;15.68;8.52;;;;;;;12.12;61.00;99603.63;4950049;28;120168;-74
2022/01/04 09:09:49;;;;;;;15.10;8.05;;;;;;;12.12;60.94;99611.56;4950948;28;118675;-73
2022/01/04 09:12:37;;;;;;;14.25;7.28;;;;;;;12.12;61.14;99612.41;4919212;28;123691;-74
2022/01/04 09:15:29;;;;;;;18.15;7.88;;;;;;;12.14;61.30;99597.22;4950841;28;123388;-73
2022/01/04 09:20:41;;;;;;;16.65;8.18;;;;;;;12.14;61.27;99594.56;4950450;28;119137;-73
2022/01/04 09:23:09;;;;;;;14.70;8.43;;;;;;;12.15;61.22;99601.59;4935148;28;123928;-73
2022/01/04 09:25:36;;;;;;;16.33;8.68;;;;;;;12.16;61.19;99597.97;4950935;28;122820;-74
2022/01/04 09:28:08;;;;;;;18.85;9.65;;;;;;;12.16;61.03;99592.66;4947972;28;118929;-73
2022/01/04 09:30:35;;;;;;;17.02;9.13;;;;;;;12.17;61.08;99589.06;4950587;28;118999;-73
2022/01/04 09:33:05;;;;;;;18.83;9.05;;;;;;;12.18;61.39;99585.41;4949906;28;121878;-73
2022/01/04 09:35:36;;;;;;;16.25;8.68;;;;;;;12.21;61.23;99598.47;4947936;28;123132;-73
2022/01/04 09:38:05;;;;;;;19.30;9.27;;;;;;;12.22;61.21;99597.53;4949116;28;120052;-73
2022/01/04 09:40:35;;;;;;;16.75;9.05;;;;;;;12.23;61.26;99609.84;4932782;28;117998;-73
2022/01/04 09:43:04;;;;;;;17.25;9.77;;;;;;;12.25;61.24;99613.22;4950498;28;124279;-73
2022/01/04 09:45:32;;;;;;;17.60;9.23;;;;;;;12.26;61.25;99609.63;4949413;28;124208;-73
2022/01/04 09:47:59;;;;;;;16.98;9.00;;;;;;;12.27;61.61;99611.31;4950286;28;119607;-73
2022/01/04 09:50:27;;;;;;;18.23;9.35;;;;;;;12.30;61.27;99606.72;4950643;28;119055;-73
2022/01/04 09:52:55;;;;;;;18.35;9.38;;;;;;;12.32;61.14;99607.47;4948940;28;124458;-73
2022/01/04 09:55:22;;;;;;;20.58;10.23;;;;;;;12.33;61.22;99609.19;4949410;28;124340;-73
2022/01/04 09:57:50;;;;;;;16.77;9.25;;;;;;;12.33;61.17;99598.56;4949192;28;118962;-73
2022/01/04 10:00:17;;;;;;;17.55;9.07;;;;;;;12.33;61.05;99610.03;4949329;28;118406;-73
2022/01/04 10:02:52;;;;;;;21.55;10.73;;;;;;;12.34;61.30;99600.25;4950174;28;123351;-73
2022/01/04 10:05:29;;;;;;;24.13;10.45;;;;;;;12.34;61.25;99592.28;4949988;28;123742;-74
2022/01/04 10:08:03;;;;;;;22.80;10.65;;;;;;;12.33;61.13;99595.91;4948743;28;119129;-74
2022/01/04 10:10:30;;;;;;;20.05;9.95;;;;;;;12.32;61.16;99597.72;4949052;28;118313;-74
2022/01/04 10:13:28;;;;;;;20.48;10.32;;;;;;;12.33;61.14;99603.88;4948735;28;123916;-73
2022/01/04 10:15:56;;;;;;;20.23;10.25;;;;;;;12.33;61.11;99599.41;4949336;28;124032;-73
2022/01/04 10:18:28;;;;;;;20.75;10.25;;;;;;;12.35;61.19;99596.63;4948531;28;118903;-74
2022/01/04 10:20:58;;;;;;;21.58;10.40;;;;;;;12.34;61.07;99595.81;4948268;28;118486;-73
2022/01/04 10:23:26;;;;;;;20.27;9.85;;;;;;;12.34;61.09;99577.22;4947520;28;123352;-73
2022/01/04 10:26:02;;;;;;;21.58;10.55;;;;;;;12.35;61.21;99564.78;4948651;28;123676;-73
2022/01/04 10:28:35;;;;;;;21.83;10.98;;;;;;;12.38;61.25;99564.56;4947250;28;118541;-73
2022/01/04 10:31:09;;;;;;;22.90;10.82;;;;;;;12.39;61.34;99551.16;4948176;28;120089;-73
2022/01/04 10:33:36;;;;;;;21.08;11.25;;;;;;;12.41;61.26;99553.69;4947271;28;124369;-73
2022/01/04 10:36:12;;;;;;;20.13;10.90;;;;;;;12.41;61.18;99548.38;4949817;28;123770;-74
2022/01/04 10:38:46;;;;;;;22.15;11.43;;;;;;;12.43;61.34;99557.09;4948728;28;118238;-74
2022/01/04 10:41:16;;;;;;;24.88;11.93;;;;;;;12.43;61.16;99573.03;4946314;28;118563;-74
2022/01/04 10:43:46;;;;;;;21.88;11.88;;;;;;;12.44;61.14;99569.41;4950234;28;124139;-74
2022/01/04 10:46:17;;;;;;;26.58;11.98;;;;;;;12.44;61.19;99558.78;4949929;28;123889;-73
2022/01/04 10:48:46;;;;;;;25.70;12.25;;;;;;;12.44;61.28;99548.19;4949043;28;118444;-74
2022/01/04 10:51:21;;;;;;;22.65;12.02;;;;;;;12.45;61.63;99549.84;4944341;28;118778;-73
2022/01/04 10:54:18;;;;;;;25.83;11.90;;;;;;;12.47;61.28;99558.59;4923449;28;123913;-73
2022/01/04 10:57:06;;;;;;;22.10;11.98;;;;;;;12.49;61.27;99556.66;4953032;28;122524;-74
2022/01/04 10:59:34;;;;;;;24.95;11.65;;;;;;;12.50;61.20;99553.03;4949056;28;117476;-74
2022/01/04 11:02:03;;;;;;;21.02;11.35;;;;;;;12.52;61.22;99545.78;4935156;28;118021;-74
2022/01/04 11:04:30;;;;;;;24.55;12.00;;;;;;;12.53;61.35;99542.19;4934788;28;123168;-74
2022/01/04 11:07:00;;;;;;;23.75;12.63;;;;;;;12.55;61.20;99542.06;4949944;28;122909;-73
2022/01/04 11:09:29;;;;;;;28.30;12.65;;;;;;;12.55;61.16;99550.88;4923729;28;120785;-75
2022/01/04 11:11:56;;;;;;;22.70;11.95;;;;;;;12.58;61.03;99558.63;4931970;28;117384;-74
2022/01/04 11:14:25;;;;;;;24.70;12.40;;;;;;;12.60;61.41;99554.06;4931309;28;122934;-75
2022/01/04 11:16:52;;;;;;;25.35;12.15;;;;;;;12.63;61.19;99563.59;4931737;28;123796;-74
2022/01/04 11:19:20;;;;;;;23.60;12.07;;;;;;;12.65;61.27;99559.84;4930639;28;119538;-75
2022/01/04 11:21:49;;;;;;;25.55;12.85;;;;;;;12.65;61.11;99562.50;4948051;28;119569;-74
2022/01/04 11:24:16;;;;;;;29.80;13.10;;;;;;;12.66;61.23;99556.25;4947206;28;123134;-74
2022/01/04 11:26:47;;;;;;;24.75;12.77;;;;;;;12.66;61.05;99547.44;4931553;28;123074;-74
2022/01/04 11:29:17;;;;;;;26.80;12.77;;;;;;;12.65;61.09;99551.88;4947750;28;118451;-75
2022/01/04 11:32:10;;;;;;;27.85;12.07;;;;;;;12.64;61.32;99555.53;4948776;28;119717;-75
2022/01/04 11:35:02;;;;;;;24.88;12.93;;;;;;;12.65;60.91;99551.88;4949419;28;124383;-75
2022/01/04 11:37:29;;;;;;;25.80;13.13;;;;;;;12.65;61.17;99562.50;4947592;28;125017;-75